createdAt,value
2018-07-11T00:01:22.925Z,4.83
2018-07-11T00:03:54.273Z,4.97
2018-07-11T00:06:25.183Z,4.70
2018-07-11T00:08:57.248Z,4.70
2018-07-11T00:11:26.658Z,5.03
2018-07-11T00:13:56.518Z,5.20
2018-07-11T00:16:26.118Z,4.93
2018-07-11T00:18:55.617Z,4.53
2018-07-11T00:21:25.457Z,4.97
2018-07-11T00:23:55.117Z,5.00
2018-07-11T00:26:25.337Z,5.70
2018-07-11T00:28:54.979Z,5.10
2018-07-11T00:31:24.617Z,4.63
2018-07-11T00:33:54.477Z,4.67
2018-07-11T00:36:24.038Z,6.23
2018-07-11T00:38:53.438Z,4.80
2018-07-11T00:41:23.218Z,5.20
2018-07-11T00:43:54.556Z,5.07
2018-07-11T00:46:24.275Z,5.33
2018-07-11T00:48:53.655Z,4.83
2018-07-11T00:51:23.335Z,5.00
2018-07-11T00:53:52.875Z,5.20
2018-07-11T00:56:22.355Z,6.37
2018-07-11T00:59:28.599Z,5.73
2018-07-11T01:02:07.421Z,5.43
2018-07-11T01:04:36.842Z,5.50
2018-07-11T01:07:07.580Z,5.73
2018-07-11T01:09:52.219Z,5.30
2018-07-11T01:12:22.659Z,5.27
2018-07-11T01:14:52.159Z,5.73
2018-07-11T01:17:27.339Z,5.87
2018-07-11T01:19:57.699Z,6.17
2018-07-11T01:22:27.119Z,6.47
2018-07-11T01:24:57.199Z,6.57
2018-07-11T01:27:26.961Z,5.93
2018-07-11T01:29:56.539Z,6.23
2018-07-11T01:32:26.719Z,5.63
2018-07-11T01:34:56.019Z,7.00
2018-07-11T01:37:25.459Z,6.57
2018-07-11T01:39:54.800Z,6.53
2018-07-11T01:42:24.539Z,7.23
2018-07-11T01:44:54.359Z,7.17
2018-07-11T01:47:23.458Z,6.47
2018-07-11T01:49:53.538Z,7.20
2018-07-11T01:52:33.879Z,6.73
2018-07-11T01:55:03.819Z,7.30
2018-07-11T01:57:33.220Z,7.47
2018-07-11T02:00:02.526Z,7.53
2018-07-11T02:02:31.978Z,6.63
2018-07-11T02:05:01.799Z,7.03
2018-07-11T02:07:31.239Z,7.53
2018-07-11T02:10:00.519Z,6.77
2018-07-11T02:12:30.609Z,7.23
2018-07-11T02:15:06.444Z,7.20
2018-07-11T02:17:38.146Z,6.90
2018-07-11T02:20:10.041Z,6.83
2018-07-11T02:22:40.070Z,7.40
2018-07-11T02:25:09.639Z,7.07
2018-07-11T02:27:39.430Z,6.77
2018-07-11T02:30:09.319Z,7.07
2018-07-11T02:32:38.759Z,7.30
2018-07-11T02:35:08.259Z,7.17
2018-07-11T02:37:37.479Z,7.47
2018-07-11T02:40:07.599Z,7.23
2018-07-11T02:42:37.299Z,6.90
2018-07-11T02:45:06.560Z,6.80
2018-07-11T02:47:41.139Z,7.03
2018-07-11T02:50:11.659Z,7.90
2018-07-11T02:52:41.439Z,8.13
2018-07-11T02:55:11.200Z,7.77
2018-07-11T02:57:40.680Z,7.57
2018-07-11T03:00:10.075Z,8.07
2018-07-11T03:02:39.599Z,7.80
2018-07-11T03:05:09.179Z,8.60
2018-07-11T03:07:38.922Z,8.50
2018-07-11T03:10:08.019Z,9.13
2018-07-11T03:12:38.059Z,7.87
2018-07-11T03:15:07.919Z,8.80
2018-07-11T03:17:37.659Z,10.60
2018-07-11T03:20:07.220Z,8.87
2018-07-11T03:22:36.539Z,9.00
2018-07-11T03:25:05.958Z,8.80
2018-07-11T03:27:35.758Z,8.10
2018-07-11T03:30:05.039Z,7.87
2018-07-11T03:32:34.774Z,8.53
2018-07-11T03:35:04.519Z,8.90
2018-07-11T03:37:34.158Z,8.40
2018-07-11T03:40:03.998Z,8.97
2018-07-11T03:42:33.319Z,8.57
2018-07-11T03:45:03.079Z,10.13
2018-07-11T03:47:32.838Z,10.70
2018-07-11T03:50:02.852Z,11.20
2018-07-11T03:52:32.099Z,10.87
2018-07-11T03:55:01.480Z,11.07
2018-07-11T03:57:30.739Z,15.27
2018-07-11T04:00:00.421Z,17.13
2018-07-11T04:02:29.881Z,16.20
2018-07-11T04:04:58.701Z,14.93
2018-07-11T04:07:28.537Z,15.63
2018-07-11T04:09:57.856Z,14.53
2018-07-11T04:12:27.256Z,17.03
2018-07-11T04:14:57.375Z,17.90
2018-07-11T04:17:27.357Z,18.23
2018-07-11T04:19:56.796Z,16.10
2018-07-11T04:22:26.621Z,15.43
2018-07-11T04:24:56.316Z,16.60
2018-07-11T04:27:26.116Z,17.23
2018-07-11T04:29:55.956Z,15.93
2018-07-11T04:32:26.396Z,17.00
2018-07-11T04:34:57.757Z,18.10
2018-07-11T04:37:28.077Z,18.43
2018-07-11T04:39:57.575Z,19.03
2018-07-11T04:42:28.837Z,18.17
2018-07-11T04:44:58.317Z,17.13
2018-07-11T04:47:27.977Z,17.37
2018-07-11T04:49:58.516Z,18.20
2018-07-11T04:55:05.995Z,17.13
2018-07-11T04:57:39.484Z,17.37
2018-07-11T05:00:09.335Z,17.03
2018-07-11T05:02:39.076Z,18.00
2018-07-11T05:05:08.196Z,16.30
2018-07-11T05:07:38.158Z,16.60
2018-07-11T05:10:07.699Z,15.57
2018-07-11T05:12:37.476Z,16.53
2018-07-11T05:15:06.296Z,14.87
2018-07-11T05:17:36.496Z,14.00
2018-07-11T05:20:06.556Z,13.57
2018-07-11T05:22:36.236Z,12.53
2018-07-11T05:25:05.976Z,12.17
2018-07-11T05:27:35.992Z,10.53
2018-07-11T05:30:06.661Z,11.60
2018-07-11T05:32:36.362Z,10.97
2018-07-11T05:35:06.482Z,12.00
2018-07-11T05:37:37.639Z,11.97
2018-07-11T05:40:06.955Z,12.23
2018-07-11T05:42:37.155Z,11.60
2018-07-11T05:45:06.896Z,12.23
2018-07-11T05:47:36.036Z,11.33
2018-07-11T05:50:05.476Z,12.37
2018-07-11T05:52:35.215Z,13.03
2018-07-11T05:55:05.456Z,12.30
2018-07-11T05:57:34.818Z,12.87
2018-07-11T06:00:08.164Z,12.90
2018-07-11T06:02:37.520Z,12.10
2018-07-11T06:05:06.879Z,12.57
2018-07-11T06:07:36.683Z,12.40
2018-07-11T06:10:06.059Z,11.63
2018-07-11T06:12:35.759Z,11.03
2018-07-11T06:15:05.060Z,11.37
2018-07-11T06:17:34.791Z,10.60
2018-07-11T06:20:04.799Z,11.07
2018-07-11T06:22:34.460Z,11.10
2018-07-11T06:25:04.160Z,11.63
2018-07-11T06:27:33.798Z,11.53
2018-07-11T06:30:03.229Z,12.13
2018-07-11T06:32:33.198Z,11.60
2018-07-11T06:35:02.498Z,12.17
2018-07-11T06:37:31.839Z,12.37
2018-07-11T06:40:01.619Z,10.77
2018-07-11T06:42:31.018Z,11.13
2018-07-11T06:45:00.360Z,12.63
2018-07-11T06:47:30.285Z,11.70
2018-07-11T06:50:00.799Z,11.77
2018-07-11T06:52:30.860Z,12.63
2018-07-11T06:55:00.519Z,11.17
2018-07-11T06:57:29.308Z,11.70
2018-07-11T06:59:59.078Z,12.70
2018-07-11T07:02:28.240Z,10.70
2018-07-11T07:04:57.879Z,11.07
2018-07-11T07:07:28.039Z,11.37
2018-07-11T07:09:57.479Z,9.90
2018-07-11T07:12:27.182Z,11.13
2018-07-11T07:14:56.781Z,11.63
2018-07-11T07:17:26.120Z,11.17
2018-07-11T07:19:55.359Z,10.67
2018-07-11T07:22:25.208Z,11.10
2018-07-11T07:24:54.780Z,9.70
2018-07-11T07:27:28.720Z,10.50
2018-07-11T07:29:58.159Z,9.70
2018-07-11T07:32:27.543Z,9.23
2018-07-11T07:34:57.331Z,9.33
2018-07-11T07:37:26.759Z,8.40
2018-07-11T07:39:56.719Z,8.43
2018-07-11T07:42:26.277Z,8.60
2018-07-11T07:44:56.037Z,8.47
2018-07-11T07:47:30.456Z,8.67
2018-07-11T07:49:59.877Z,9.30
2018-07-11T07:55:03.568Z,8.30
2018-07-11T07:57:33.697Z,8.80
2018-07-11T08:00:03.206Z,9.37
2018-07-11T08:02:32.779Z,8.33
2018-07-11T08:05:05.319Z,8.83
2018-07-11T08:07:36.480Z,10.17
2018-07-11T08:10:06.480Z,10.17
2018-07-11T08:12:35.885Z,12.47
2018-07-11T08:15:05.260Z,10.47
2018-07-11T08:17:34.879Z,12.10
2018-07-11T08:20:04.622Z,11.60
2018-07-11T08:23:14.080Z,12.27
2018-07-11T08:25:56.040Z,11.03
2018-07-11T08:28:43.561Z,12.13
2018-07-11T08:31:26.361Z,11.53
2018-07-11T08:34:27.900Z,12.17
2018-07-11T08:39:12.879Z,12.00
2018-07-11T08:50:55.079Z,12.07
2018-07-11T08:53:40.076Z,13.17
2018-07-11T09:00:27.751Z,12.90
2018-07-11T09:07:10.324Z,12.87
2018-07-11T09:09:48.163Z,12.90
2018-07-11T09:12:29.323Z,12.93
2018-07-11T09:15:11.302Z,12.27
2018-07-11T09:18:05.802Z,13.07
2018-07-11T09:30:35.610Z,12.20
2018-07-11T09:33:05.638Z,11.20
2018-07-11T09:35:35.077Z,11.80
2018-07-11T09:38:04.499Z,12.00
2018-07-11T09:40:34.035Z,10.67
2018-07-11T09:43:05.708Z,10.67
2018-07-11T09:45:35.583Z,10.67
2018-07-11T09:48:04.939Z,10.03
2018-07-11T09:50:35.075Z,9.90
2018-07-11T09:53:04.995Z,10.53
2018-07-11T09:55:38.575Z,9.67
2018-07-11T09:58:08.979Z,9.50
2018-07-11T10:00:44.476Z,7.60
2018-07-11T10:03:14.137Z,6.30
2018-07-11T10:05:43.616Z,8.00
2018-07-11T10:08:13.803Z,8.77
2018-07-11T10:10:44.799Z,8.37
2018-07-11T10:13:14.898Z,7.87
2018-07-11T10:15:44.236Z,6.83
2018-07-11T10:18:13.797Z,8.00
2018-07-11T10:20:43.076Z,7.30
2018-07-11T10:23:12.856Z,7.17
2018-07-11T10:25:43.056Z,7.07
2018-07-11T10:28:19.941Z,6.53
2018-07-11T10:30:50.236Z,6.60
2018-07-11T10:33:19.596Z,5.20
2018-07-11T10:35:49.157Z,5.37
2018-07-11T10:38:18.596Z,4.93
2018-07-11T10:40:48.320Z,5.00
2018-07-11T10:43:19.019Z,3.90
2018-07-11T10:45:48.899Z,4.23
2018-07-11T10:48:20.756Z,3.60
2018-07-11T10:50:50.276Z,3.57
2018-07-11T10:53:20.996Z,2.63
2018-07-11T10:55:50.360Z,3.40
2018-07-11T10:58:19.917Z,2.80
2018-07-11T11:01:05.021Z,2.93
2018-07-11T11:03:29.219Z,2.80
2018-07-11T11:06:03.179Z,2.90
2018-07-11T11:08:33.045Z,3.80
2018-07-11T11:11:02.484Z,2.87
2018-07-11T11:13:31.819Z,2.70
2018-07-11T11:16:01.239Z,2.60
2018-07-11T11:18:30.767Z,2.87
2018-07-11T11:21:00.045Z,2.50
2018-07-11T11:23:30.059Z,2.80
2018-07-11T11:25:59.819Z,2.70
2018-07-11T11:28:29.478Z,3.07
2018-07-11T11:30:58.922Z,2.93
2018-07-11T11:33:28.278Z,2.77
2018-07-11T11:35:58.019Z,2.67
2018-07-11T11:38:29.178Z,2.43
2018-07-11T11:40:58.797Z,2.60
2018-07-11T11:43:28.421Z,2.57
2018-07-11T11:45:57.739Z,3.20
2018-07-11T11:48:27.117Z,2.63
2018-07-11T11:50:56.897Z,2.77
2018-07-11T11:53:26.418Z,3.13
2018-07-11T11:56:00.560Z,3.13
2018-07-11T11:58:33.557Z,2.93
2018-07-11T12:01:02.961Z,2.57
2018-07-11T12:03:32.763Z,3.07
2018-07-11T12:06:02.363Z,3.87
2018-07-11T12:08:31.921Z,3.30
2018-07-11T12:11:01.341Z,2.33
2018-07-11T12:13:31.181Z,3.30
2018-07-11T12:16:01.002Z,2.40
2018-07-11T12:18:30.082Z,2.50
2018-07-11T12:21:01.079Z,2.50
2018-07-11T12:23:31.022Z,3.10
2018-07-11T12:26:04.847Z,2.93
2018-07-11T12:28:34.681Z,2.60
2018-07-11T12:31:05.003Z,3.07
2018-07-11T12:33:34.479Z,3.13
2018-07-11T12:36:04.106Z,3.20
2018-07-11T12:38:33.961Z,3.00
2018-07-11T12:41:03.321Z,3.50
2018-07-11T12:43:33.519Z,3.20
2018-07-11T12:46:03.341Z,2.97
2018-07-11T12:48:42.142Z,3.33
2018-07-11T12:51:13.881Z,4.00
2018-07-11T12:53:43.621Z,3.40
2018-07-11T12:56:13.281Z,3.60
2018-07-11T12:58:42.841Z,3.53
2018-07-11T13:01:14.578Z,3.60
2018-07-11T13:03:48.717Z,3.53
2018-07-11T13:06:18.376Z,4.10
2018-07-11T13:08:48.037Z,4.10
2018-07-11T13:11:18.118Z,4.00
2018-07-11T13:13:52.558Z,4.00
2018-07-11T13:16:22.087Z,4.30
2018-07-11T13:18:52.016Z,4.90
2018-07-11T13:21:21.637Z,3.90
2018-07-11T13:23:50.979Z,4.03
2018-07-11T13:26:20.716Z,4.50
2018-07-11T13:28:49.958Z,4.67
2018-07-11T13:31:19.816Z,4.60
2018-07-11T13:33:49.756Z,4.80
2018-07-11T13:36:19.376Z,4.13
2018-07-11T13:38:48.759Z,4.43
2018-07-11T13:41:17.996Z,4.87
2018-07-11T13:43:47.761Z,4.23
2018-07-11T13:46:17.268Z,4.40
2018-07-11T13:48:46.639Z,4.53
2018-07-11T13:51:20.097Z,5.07
2018-07-11T13:53:49.799Z,5.23
2018-07-11T13:56:19.579Z,5.40
2018-07-11T13:58:50.079Z,5.63
2018-07-11T14:01:19.938Z,5.43
2018-07-11T14:03:49.718Z,6.30
2018-07-11T14:06:19.899Z,5.07
2018-07-11T14:08:49.419Z,5.30
2018-07-11T14:11:18.881Z,6.30
2018-07-11T14:13:49.480Z,5.33
2018-07-11T14:16:19.879Z,4.20
2018-07-11T14:18:49.321Z,5.53
2018-07-11T14:21:18.660Z,5.90
2018-07-11T14:23:48.638Z,5.40
2018-07-11T14:26:21.158Z,4.80
2018-07-11T14:28:52.580Z,4.80
2018-07-11T14:31:29.419Z,5.30
2018-07-11T14:34:02.822Z,4.00
2018-07-11T14:36:33.959Z,4.77
2018-07-11T14:39:05.121Z,4.17
2018-07-11T14:41:35.119Z,4.07
2018-07-11T14:46:42.779Z,4.33
2018-07-11T14:49:15.581Z,4.03
2018-07-11T14:51:49.818Z,3.90
2018-07-11T14:54:20.079Z,3.90
2018-07-11T14:56:49.179Z,3.73
2018-07-11T14:59:18.641Z,4.10
2018-07-11T15:01:48.045Z,4.40
2018-07-11T15:04:22.437Z,4.57
2018-07-11T15:06:51.237Z,4.17
2018-07-11T15:09:21.459Z,4.27
2018-07-11T15:11:50.818Z,4.37
2018-07-11T15:14:20.297Z,4.80
2018-07-11T15:16:50.167Z,4.60
2018-07-11T15:19:20.157Z,4.70
2018-07-11T15:21:51.516Z,5.40
2018-07-11T15:24:20.918Z,4.70
2018-07-11T15:26:50.496Z,4.20
2018-07-11T15:29:21.136Z,4.37
2018-07-11T15:31:50.715Z,4.90
2018-07-11T15:34:20.476Z,4.77
2018-07-11T15:36:50.377Z,4.87
2018-07-11T15:39:23.977Z,4.90
2018-07-11T15:41:53.638Z,4.90
2018-07-11T15:44:23.215Z,4.57
2018-07-11T15:46:53.259Z,5.23
2018-07-11T15:49:22.876Z,5.03
2018-07-11T15:51:57.060Z,4.67
2018-07-11T15:54:26.814Z,4.70
2018-07-11T15:56:56.676Z,4.20
2018-07-11T15:59:31.817Z,4.70
2018-07-11T16:02:01.261Z,4.20
2018-07-11T16:04:37.044Z,4.60
2018-07-11T16:07:08.403Z,5.33
2018-07-11T16:10:10.569Z,5.67
2018-07-11T16:12:40.001Z,5.60
2018-07-11T16:15:09.581Z,5.60
2018-07-11T16:17:39.561Z,5.57
2018-07-11T16:20:09.021Z,6.13
2018-07-11T16:22:38.742Z,5.80
2018-07-11T16:25:08.721Z,7.03
2018-07-11T16:27:38.481Z,5.27
2018-07-11T16:30:08.061Z,5.90
2018-07-11T16:32:42.301Z,5.17
2018-07-11T16:35:12.161Z,4.83
2018-07-11T16:37:41.721Z,5.23
2018-07-11T16:40:15.803Z,6.10
2018-07-11T16:42:45.761Z,6.23
2018-07-11T16:45:15.301Z,6.47
2018-07-11T16:47:45.382Z,6.87
2018-07-11T16:50:14.914Z,7.47
2018-07-11T16:52:45.862Z,6.97
2018-07-11T16:55:15.963Z,6.30
2018-07-11T16:57:49.481Z,7.13
2018-07-11T17:00:24.978Z,7.40
2018-07-11T17:03:14.325Z,6.80
2018-07-11T17:05:52.826Z,6.80
2018-07-11T17:08:28.959Z,7.60
2018-07-11T17:11:06.325Z,7.17
2018-07-11T17:13:36.445Z,6.73
2018-07-11T17:16:07.248Z,6.40
2018-07-11T17:18:48.786Z,7.37
2018-07-11T17:21:31.205Z,5.97
2018-07-11T17:24:08.026Z,6.47
2018-07-11T17:26:45.828Z,6.60
2018-07-11T17:29:27.745Z,5.87
2018-07-11T17:32:04.758Z,5.57
2018-07-11T17:34:35.278Z,6.50
2018-07-11T17:37:06.643Z,6.17
2018-07-11T17:39:57.501Z,6.10
2018-07-11T17:42:30.504Z,6.10
2018-07-11T17:45:11.019Z,7.53
2018-07-11T17:49:50.360Z,5.77
2018-07-11T17:52:20.820Z,6.43
2018-07-11T17:55:09.140Z,5.63
2018-07-11T17:57:52.359Z,6.00
2018-07-11T18:00:31.734Z,5.60
2018-07-11T18:03:06.627Z,6.77
2018-07-11T18:05:41.806Z,6.50
2018-07-11T18:08:13.506Z,6.07
2018-07-11T18:10:47.940Z,11.40
2018-07-11T18:13:27.373Z,8.20
2018-07-11T18:16:24.035Z,8.47
2018-07-11T18:19:09.181Z,8.63
2018-07-11T18:21:48.806Z,8.10
2018-07-11T18:24:26.082Z,8.30
2018-07-11T18:27:10.379Z,8.83
2018-07-11T18:31:53.650Z,7.67
2018-07-11T18:34:37.160Z,8.23
2018-07-11T18:37:17.760Z,9.30
2018-07-11T18:40:02.421Z,10.40
2018-07-11T18:42:44.500Z,9.73
2018-07-11T18:47:24.170Z,8.77
2018-07-11T18:52:00.680Z,9.10
2018-07-11T18:56:50.102Z,9.07
2018-07-11T18:59:33.540Z,9.50
2018-07-11T19:02:16.488Z,9.57
2018-07-11T19:07:14.848Z,8.67
2018-07-11T19:09:52.949Z,6.07
2018-07-11T19:12:36.342Z,6.37
2018-07-11T19:15:09.483Z,6.23
2018-07-11T19:17:53.946Z,5.50
2018-07-11T19:20:36.404Z,5.83
2018-07-11T19:23:19.083Z,5.43
2018-07-11T19:26:00.362Z,5.20
2018-07-11T19:28:41.961Z,5.73
2018-07-11T19:31:18.062Z,5.13
2018-07-11T19:33:55.366Z,6.17
2018-07-11T19:36:33.306Z,5.33
2018-07-11T19:39:13.802Z,7.93
2018-07-11T19:41:58.922Z,6.23
2018-07-11T19:44:36.400Z,6.30
2018-07-11T19:49:20.546Z,6.47
2018-07-11T19:52:00.889Z,7.07
2018-07-11T19:54:41.249Z,9.60
2018-07-11T19:57:10.726Z,7.13
2018-07-11T19:59:40.982Z,6.67
2018-07-11T20:02:10.599Z,6.70
2018-07-11T20:04:40.400Z,6.13
2018-07-11T20:07:10.472Z,6.50
2018-07-11T20:09:40.104Z,6.10
2018-07-11T20:12:15.463Z,6.80
2018-07-11T20:14:45.185Z,6.63
2018-07-11T20:17:15.360Z,9.17
2018-07-11T20:19:45.121Z,9.73
2018-07-11T20:22:15.023Z,6.40
2018-07-11T20:24:45.062Z,7.57
2018-07-11T20:27:14.802Z,8.07
2018-07-11T20:29:44.500Z,6.90
2018-07-11T20:32:14.424Z,7.50
2018-07-11T20:34:44.201Z,7.60
2018-07-11T20:37:14.393Z,7.83
2018-07-11T20:39:44.345Z,7.63
2018-07-11T20:42:14.107Z,7.93
2018-07-11T20:44:45.244Z,7.17
2018-07-11T20:47:14.523Z,6.83
2018-07-11T20:49:44.283Z,7.73
2018-07-11T20:52:14.083Z,7.40
2018-07-11T20:54:44.571Z,7.70
2018-07-11T20:57:14.362Z,7.47
2018-07-11T20:59:54.482Z,7.60
2018-07-11T21:02:35.305Z,7.97
2018-07-11T21:07:21.005Z,7.27
2018-07-11T21:12:17.404Z,7.57
2018-07-11T21:15:19.787Z,8.20
2018-07-11T21:19:57.506Z,7.40
2018-07-11T21:22:27.504Z,6.50
2018-07-11T21:24:57.644Z,6.53
2018-07-11T21:27:28.385Z,6.73
2018-07-11T21:29:58.067Z,7.27
2018-07-11T21:32:28.564Z,6.57
2018-07-11T21:34:58.266Z,6.43
2018-07-11T21:37:28.443Z,6.50
2018-07-11T21:39:58.104Z,6.80
2018-07-11T21:42:27.845Z,6.17
2018-07-11T21:44:57.684Z,6.20
2018-07-11T21:47:27.284Z,6.20
2018-07-11T21:49:56.345Z,6.43
2018-07-11T21:52:26.405Z,6.27
2018-07-11T21:54:56.044Z,7.27
2018-07-11T21:57:26.184Z,6.17
2018-07-11T21:59:56.284Z,6.43
2018-07-11T22:02:26.330Z,8.10
2018-07-11T22:04:55.949Z,6.60
2018-07-11T22:07:26.029Z,7.40
2018-07-11T22:09:56.009Z,6.73
2018-07-11T22:12:25.970Z,6.70
2018-07-11T22:14:56.029Z,6.40
2018-07-11T22:17:34.029Z,6.03
2018-07-11T22:20:02.973Z,6.60
2018-07-11T22:22:31.360Z,5.67
2018-07-11T22:25:00.141Z,5.93
2018-07-11T22:27:28.040Z,5.80
2018-07-11T22:29:56.221Z,7.17
2018-07-11T22:32:24.380Z,7.10
2018-07-11T22:34:52.560Z,7.30
2018-07-11T22:37:20.880Z,7.40
2018-07-11T22:39:49.119Z,7.70
2018-07-11T22:42:17.340Z,8.63
2018-07-11T22:44:45.560Z,8.37
2018-07-11T22:47:13.659Z,6.97
2018-07-11T22:49:45.661Z,7.03
2018-07-11T22:52:13.559Z,7.53
2018-07-11T22:54:43.244Z,7.67
2018-07-11T22:57:11.320Z,8.00
2018-07-11T22:59:39.579Z,7.10
2018-07-11T23:02:08.221Z,7.63
2018-07-11T23:04:36.181Z,7.97
2018-07-11T23:07:04.361Z,8.00
2018-07-11T23:09:32.463Z,7.47
2018-07-11T23:12:01.341Z,8.63
2018-07-11T23:14:29.980Z,7.70
2018-07-11T23:17:02.042Z,9.07
2018-07-11T23:19:30.520Z,9.07
2018-07-11T23:21:58.880Z,7.40
2018-07-11T23:24:27.223Z,8.03
2018-07-11T23:26:55.243Z,6.83
2018-07-11T23:29:23.101Z,6.43
2018-07-11T23:31:51.041Z,7.43
2018-07-11T23:34:19.201Z,7.87
2018-07-11T23:36:48.043Z,7.60
2018-07-11T23:39:16.261Z,7.23
2018-07-11T23:41:44.484Z,7.07
2018-07-11T23:44:12.846Z,7.57
2018-07-11T23:46:40.802Z,7.93
2018-07-11T23:49:09.202Z,8.17
2018-07-11T23:51:37.122Z,7.93
2018-07-11T23:54:05.443Z,7.97
2018-07-11T23:56:34.262Z,8.43
2018-07-11T23:59:02.223Z,8.80
